createdAt,value
2023-04-20T00:00:16.064Z,8.18
2023-04-20T00:02:45.537Z,8.18
2023-04-20T00:05:14.114Z,8.18
2023-04-20T00:07:43.296Z,8.18
2023-04-20T00:10:11.811Z,8.18
2023-04-20T00:12:42.294Z,8.17
2023-04-20T00:15:10.779Z,8.18
2023-04-20T00:17:40.099Z,8.18
2023-04-20T00:20:10.177Z,8.18
2023-04-20T00:22:38.676Z,8.18
2023-04-20T00:25:07.666Z,8.18
2023-04-20T00:27:36.663Z,8.18
2023-04-20T00:30:05.547Z,8.17
2023-04-20T00:32:34.190Z,8.17
2023-04-20T00:35:02.711Z,8.17
2023-04-20T00:37:31.295Z,8.17
2023-04-20T00:39:59.672Z,8.17
2023-04-20T00:42:27.952Z,8.16
2023-04-20T00:44:56.324Z,8.17
2023-04-20T00:47:25.561Z,8.17
2023-04-20T00:49:54.224Z,8.18
2023-04-20T00:52:22.787Z,8.18
2023-04-20T00:54:51.404Z,8.18
2023-04-20T00:57:24.205Z,8.18
2023-04-20T00:59:52.636Z,8.18
2023-04-20T01:02:24.056Z,8.17
2023-04-20T01:04:52.684Z,8.16
2023-04-20T01:07:21.047Z,8.15
2023-04-20T01:09:51.064Z,8.14
2023-04-20T01:12:19.449Z,8.12
2023-04-20T01:14:47.709Z,8.10
2023-04-20T01:17:16.002Z,8.07
2023-04-20T01:19:47.036Z,8.06
2023-04-20T01:22:18.379Z,8.03
2023-04-20T01:24:47.371Z,8.03
2023-04-20T01:27:17.290Z,8.03
2023-04-20T01:29:45.972Z,8.01
2023-04-20T01:32:14.356Z,8.00
2023-04-20T01:34:42.633Z,7.97
2023-04-20T01:37:11.311Z,7.95
2023-04-20T01:39:40.975Z,7.92
2023-04-20T01:42:09.890Z,7.91
2023-04-20T01:44:39.323Z,7.87
2023-04-20T01:47:07.523Z,7.85
2023-04-20T01:49:36.071Z,7.82
2023-04-20T01:52:04.566Z,7.79
2023-04-20T01:54:32.774Z,7.77
2023-04-20T01:57:03.558Z,7.75
2023-04-20T01:59:32.557Z,7.72
2023-04-20T02:02:03.339Z,7.71
2023-04-20T02:04:35.257Z,7.70
2023-04-20T02:07:03.426Z,7.69
2023-04-20T02:09:31.797Z,7.68
2023-04-20T02:12:00.277Z,7.66
2023-04-20T02:14:28.555Z,7.65
2023-04-20T02:16:57.102Z,7.63
2023-04-20T02:19:25.549Z,7.62
2023-04-20T02:21:53.898Z,7.61
2023-04-20T02:24:22.170Z,7.59
2023-04-20T02:26:50.756Z,7.59
2023-04-20T02:29:19.375Z,7.58
2023-04-20T02:31:47.950Z,7.57
2023-04-20T02:34:17.416Z,7.57
2023-04-20T02:36:45.798Z,7.57
2023-04-20T02:39:14.858Z,7.57
2023-04-20T02:41:43.097Z,7.57
2023-04-20T02:44:12.058Z,7.56
2023-04-20T02:46:40.584Z,7.56
2023-04-20T02:49:09.845Z,7.55
2023-04-20T02:51:41.599Z,7.54
2023-04-20T02:54:10.590Z,7.54
2023-04-20T02:56:38.968Z,7.53
2023-04-20T02:59:10.027Z,7.52
2023-04-20T03:01:57.608Z,7.51
2023-04-20T03:04:28.053Z,7.51
2023-04-20T03:09:59.535Z,7.52
2023-04-20T03:12:48.191Z,7.52
2023-04-20T03:15:36.429Z,7.53
2023-04-20T03:18:13.420Z,7.53
2023-04-20T03:20:42.096Z,7.52
2023-04-20T03:23:11.302Z,7.52
2023-04-20T03:25:40.182Z,7.52
2023-04-20T03:28:28.735Z,7.52
2023-04-20T03:30:57.216Z,7.53
2023-04-20T03:33:27.124Z,7.53
2023-04-20T03:35:55.592Z,7.55
2023-04-20T03:38:24.197Z,7.56
2023-04-20T03:40:53.492Z,7.57
2023-04-20T03:43:22.377Z,7.57
2023-04-20T03:45:50.904Z,7.57
2023-04-20T03:48:19.858Z,7.57
2023-04-20T03:50:49.246Z,7.57
2023-04-20T03:53:17.942Z,7.58
2023-04-20T03:55:46.932Z,7.58
2023-04-20T03:58:17.724Z,7.59
2023-04-20T04:01:09.763Z,7.59
2023-04-20T04:03:40.410Z,7.59
2023-04-20T04:06:10.966Z,7.60
2023-04-20T04:08:39.338Z,7.60
2023-04-20T04:11:08.020Z,7.62
2023-04-20T04:13:36.502Z,7.62
2023-04-20T04:16:06.825Z,7.63
2023-04-20T04:18:35.537Z,7.64
2023-04-20T04:21:10.525Z,7.66
2023-04-20T04:23:39.650Z,7.67
2023-04-20T04:26:28.089Z,7.69
2023-04-20T04:28:56.774Z,7.71
2023-04-20T04:31:26.212Z,7.71
2023-04-20T04:33:54.457Z,7.73
2023-04-20T04:36:46.179Z,7.75
2023-04-20T04:39:16.673Z,7.77
2023-04-20T04:41:51.639Z,7.78
2023-04-20T04:44:31.693Z,7.79
2023-04-20T04:47:02.835Z,7.80
2023-04-20T04:49:32.546Z,7.83
2023-04-20T04:52:01.638Z,7.85
2023-04-20T04:54:30.232Z,7.85
2023-04-20T04:56:58.614Z,7.86
2023-04-20T04:59:26.874Z,7.87
2023-04-20T05:01:55.220Z,7.90
2023-04-20T05:04:24.052Z,7.92
2023-04-20T05:06:52.728Z,7.96
2023-04-20T05:09:21.321Z,7.98
2023-04-20T05:11:49.889Z,8.00
2023-04-20T05:14:18.386Z,8.02
2023-04-20T05:16:46.846Z,8.05
2023-04-20T05:19:15.667Z,8.07
2023-04-20T05:21:44.222Z,8.09
2023-04-20T05:24:12.698Z,8.12
2023-04-20T05:26:41.509Z,8.16
2023-04-20T05:29:10.174Z,8.20
2023-04-20T05:31:38.596Z,8.24
2023-04-20T05:34:06.937Z,8.27
2023-04-20T05:36:35.640Z,8.31
2023-04-20T05:39:04.402Z,8.34
2023-04-20T05:41:33.398Z,8.38
2023-04-20T05:44:02.907Z,8.40
2023-04-20T05:46:31.787Z,8.41
2023-04-20T05:49:00.178Z,8.42
2023-04-20T05:51:32.847Z,8.43
2023-04-20T05:54:02.062Z,8.45
2023-04-20T05:56:30.830Z,8.44
2023-04-20T05:58:58.997Z,8.46
2023-04-20T06:01:27.398Z,8.48
2023-04-20T06:03:56.411Z,8.49
2023-04-20T06:06:25.590Z,8.49
2023-04-20T06:08:55.280Z,8.49
2023-04-20T06:11:23.764Z,8.51
2023-04-20T06:13:52.053Z,8.52
2023-04-20T06:16:20.889Z,8.53
2023-04-20T06:18:49.819Z,8.54
2023-04-20T06:21:18.105Z,8.54
2023-04-20T06:23:46.581Z,8.54
2023-04-20T06:26:14.756Z,8.55
2023-04-20T06:28:43.435Z,8.56
2023-04-20T06:31:12.081Z,8.59
2023-04-20T06:33:41.022Z,8.62
2023-04-20T06:36:09.292Z,8.65
2023-04-20T06:38:37.662Z,8.68
2023-04-20T06:41:06.246Z,8.71
2023-04-20T06:43:34.829Z,8.75
2023-04-20T06:46:03.128Z,8.79
2023-04-20T06:48:33.075Z,8.82
2023-04-20T06:51:02.133Z,8.86
2023-04-20T06:53:30.387Z,8.89
2023-04-20T06:55:58.886Z,8.94
2023-04-20T06:58:27.247Z,8.98
2023-04-20T07:00:55.767Z,9.02
2023-04-20T07:03:24.556Z,9.07
2023-04-20T07:05:52.993Z,9.12
2023-04-20T07:19:04.238Z,9.35
2023-04-20T07:21:33.514Z,9.39
2023-04-20T07:24:02.256Z,9.41
2023-04-20T07:26:31.336Z,9.44
2023-04-20T07:28:59.701Z,9.47
2023-04-20T07:31:28.124Z,9.50
2023-04-20T07:33:56.450Z,9.52
2023-04-20T07:36:25.239Z,9.51
2023-04-20T07:38:53.731Z,9.52
2023-04-20T07:41:23.333Z,9.54
2023-04-20T07:43:51.609Z,9.54
2023-04-20T07:46:21.412Z,9.54
2023-04-20T07:48:49.610Z,9.54
2023-04-20T07:51:18.187Z,9.54
2023-04-20T07:53:47.080Z,9.53
2023-04-20T07:56:15.233Z,9.55
2023-04-20T07:58:43.620Z,9.57
2023-04-20T08:01:11.994Z,9.59
2023-04-20T08:03:41.772Z,9.61
2023-04-20T08:06:10.697Z,9.62
2023-04-20T08:08:38.876Z,9.60
2023-04-20T08:11:08.384Z,9.57
2023-04-20T08:13:37.506Z,9.55
2023-04-20T08:16:07.871Z,9.48
2023-04-20T08:18:36.478Z,9.44
2023-04-20T08:21:04.864Z,9.42
2023-04-20T08:23:33.138Z,9.42
2023-04-20T08:26:02.020Z,9.41
2023-04-20T08:28:33.700Z,9.40
2023-04-20T08:31:02.947Z,9.38
2023-04-20T08:33:31.255Z,9.37
2023-04-20T08:35:59.634Z,9.33
2023-04-20T08:38:33.933Z,9.29
2023-04-20T08:41:02.951Z,9.26
2023-04-20T08:43:31.828Z,9.26
2023-04-20T08:46:01.986Z,9.28
2023-04-20T08:48:37.393Z,9.30
2023-04-20T08:51:06.316Z,9.31
2023-04-20T08:53:34.562Z,9.29
2023-04-20T08:56:02.934Z,9.26
2023-04-20T08:58:32.434Z,9.25
2023-04-20T09:01:01.652Z,9.22
2023-04-20T09:03:34.854Z,9.19
2023-04-20T09:06:04.742Z,9.18
2023-04-20T09:08:40.619Z,9.17
2023-04-20T09:11:20.645Z,9.11
2023-04-20T09:14:03.194Z,9.07
2023-04-20T09:16:32.057Z,9.01
2023-04-20T09:19:00.422Z,8.99
2023-04-20T09:21:29.212Z,8.96
2023-04-20T09:23:58.915Z,8.94
2023-04-20T09:26:27.607Z,8.90
2023-04-20T09:28:55.776Z,8.82
2023-04-20T09:31:24.322Z,8.75
2023-04-20T09:33:59.825Z,8.72
2023-04-20T09:36:47.959Z,8.68
2023-04-20T09:39:20.965Z,8.65
2023-04-20T09:41:50.338Z,8.61
2023-04-20T09:44:19.623Z,8.60
2023-04-20T09:46:48.348Z,8.58
2023-04-20T09:49:17.207Z,8.58
2023-04-20T09:51:45.587Z,8.55
2023-04-20T09:54:14.277Z,8.54
2023-04-20T09:56:43.487Z,8.53
2023-04-20T09:59:12.456Z,8.52
2023-04-20T10:01:41.205Z,8.49
2023-04-20T10:04:14.836Z,8.45
2023-04-20T10:06:58.234Z,8.36
2023-04-20T10:09:26.871Z,8.27
2023-04-20T10:12:05.793Z,8.20
2023-04-20T10:14:35.780Z,8.19
2023-04-20T10:17:09.123Z,8.17
2023-04-20T10:19:44.976Z,8.20
2023-04-20T10:22:14.660Z,8.22
2023-04-20T10:24:43.348Z,8.25
2023-04-20T10:27:18.477Z,8.26
2023-04-20T10:29:46.886Z,8.26
2023-04-20T10:32:28.330Z,8.30
2023-04-20T10:35:02.592Z,8.33
2023-04-20T10:37:32.424Z,8.31
2023-04-20T10:40:00.954Z,8.28
2023-04-20T10:42:31.790Z,8.26
2023-04-20T10:45:00.111Z,8.23
2023-04-20T10:47:32.452Z,8.21
2023-04-20T10:50:16.477Z,8.23
2023-04-20T10:52:44.782Z,8.24
2023-04-20T10:55:20.341Z,8.29
2023-04-20T10:57:49.123Z,8.27
2023-04-20T11:00:18.572Z,8.24
2023-04-20T11:02:50.683Z,8.20
2023-04-20T11:05:19.774Z,8.16
2023-04-20T11:07:55.291Z,8.14
2023-04-20T11:10:38.476Z,8.15
2023-04-20T11:13:07.476Z,8.11
2023-04-20T11:18:33.976Z,8.08
2023-04-20T11:21:02.250Z,8.08
2023-04-20T11:23:37.694Z,8.09
2023-04-20T11:26:06.992Z,8.08
2023-04-20T11:28:35.268Z,8.11
2023-04-20T11:31:04.488Z,8.15
2023-04-20T11:33:34.424Z,8.17
2023-04-20T11:36:03.180Z,8.19
2023-04-20T11:38:32.876Z,8.22
2023-04-20T11:41:04.918Z,8.23
2023-04-20T11:43:33.857Z,8.21
2023-04-20T11:46:03.202Z,8.18
2023-04-20T11:48:32.140Z,8.16
2023-04-20T11:51:00.706Z,8.16
2023-04-20T11:53:29.189Z,8.19
2023-04-20T11:55:57.773Z,8.19
2023-04-20T11:58:26.042Z,8.20
2023-04-20T12:00:54.418Z,8.20
2023-04-20T12:03:23.314Z,8.16
2023-04-20T12:05:51.893Z,8.13
2023-04-20T12:08:20.999Z,8.09
2023-04-20T12:10:49.364Z,8.05
2023-04-20T12:13:17.852Z,8.00
2023-04-20T12:15:46.275Z,7.98
2023-04-20T12:18:14.713Z,7.96
2023-04-20T12:20:43.293Z,7.94
2023-04-20T12:23:11.460Z,7.93
2023-04-20T12:25:39.839Z,7.89
2023-04-20T12:28:08.318Z,7.85
2023-04-20T12:30:36.901Z,7.85
2023-04-20T12:33:05.337Z,7.83
2023-04-20T12:35:33.890Z,7.80
2023-04-20T12:38:02.350Z,7.81
2023-04-20T12:40:31.442Z,7.79
2023-04-20T12:43:00.033Z,7.76
2023-04-20T12:45:28.409Z,7.72
2023-04-20T12:47:58.445Z,7.70
2023-04-20T12:50:28.330Z,7.68
2023-04-20T12:52:58.645Z,7.67
2023-04-20T12:55:26.926Z,7.64
2023-04-20T12:57:55.410Z,7.62
2023-04-20T13:00:24.193Z,7.61
2023-04-20T13:02:52.672Z,7.61
2023-04-20T13:05:21.466Z,7.62
2023-04-20T13:07:49.746Z,7.63
2023-04-20T13:10:18.327Z,7.63
2023-04-20T13:12:46.704Z,7.64
2023-04-20T13:15:16.198Z,7.64
2023-04-20T13:17:47.898Z,7.65
2023-04-20T13:20:16.237Z,7.65
2023-04-20T13:22:54.779Z,7.64
2023-04-20T13:25:26.844Z,7.61
2023-04-20T13:27:55.398Z,7.60
2023-04-20T13:30:24.570Z,7.60
2023-04-20T13:32:53.230Z,7.64
2023-04-20T13:35:21.966Z,7.66
2023-04-20T13:37:50.640Z,7.69
2023-04-20T13:40:18.944Z,7.79
2023-04-20T13:42:47.317Z,7.91
2023-04-20T13:45:15.788Z,7.99
2023-04-20T13:47:44.498Z,8.03
2023-04-20T13:50:12.765Z,8.02
2023-04-20T13:52:41.232Z,8.00
2023-04-20T13:55:10.031Z,7.99
2023-04-20T13:57:38.195Z,7.96
2023-04-20T14:00:07.904Z,7.91
2023-04-20T14:02:36.994Z,7.89
2023-04-20T14:05:06.616Z,7.88
2023-04-20T14:07:34.776Z,7.85
2023-04-20T14:10:03.371Z,7.80
2023-04-20T14:12:33.825Z,7.75
2023-04-20T14:15:02.790Z,7.71
2023-04-20T14:17:31.648Z,7.68
2023-04-20T14:20:00.312Z,7.64
2023-04-20T14:22:34.480Z,7.63
2023-04-20T14:25:05.096Z,7.63
2023-04-20T14:27:34.304Z,7.64
2023-04-20T14:30:03.229Z,7.66
2023-04-20T14:32:31.867Z,7.65
2023-04-20T14:35:01.406Z,7.65
2023-04-20T14:37:31.188Z,7.64
2023-04-20T14:39:59.258Z,7.63
2023-04-20T14:42:27.493Z,7.64
2023-04-20T14:44:56.126Z,7.66
2023-04-20T14:47:24.530Z,7.68
2023-04-20T14:49:52.972Z,7.68
2023-04-20T14:52:21.457Z,7.66
2023-04-20T14:54:49.935Z,7.66
2023-04-20T14:57:18.821Z,7.63
2023-04-20T14:59:47.104Z,7.60
2023-04-20T15:02:15.489Z,7.55
2023-04-20T15:04:44.177Z,7.52
2023-04-20T15:07:12.543Z,7.47
2023-04-20T15:09:41.846Z,7.44
2023-04-20T15:12:10.016Z,7.41
2023-04-20T15:17:54.185Z,7.40
2023-04-20T15:20:22.761Z,7.38
2023-04-20T15:22:51.246Z,7.37
2023-04-20T15:28:21.179Z,7.39
2023-04-20T15:30:49.766Z,7.37
2023-04-20T15:33:18.099Z,7.35
2023-04-20T15:35:48.567Z,7.32
2023-04-20T15:38:19.805Z,7.31
2023-04-20T15:40:48.290Z,7.30
2023-04-20T15:43:16.775Z,7.29
2023-04-20T15:45:45.094Z,7.28
2023-04-20T15:48:13.331Z,7.26
2023-04-20T15:50:41.917Z,7.24
2023-04-20T15:53:10.288Z,7.20
2023-04-20T15:55:39.582Z,7.17
2023-04-20T15:58:07.860Z,7.14
2023-04-20T16:00:36.550Z,7.12
2023-04-20T16:03:04.927Z,7.12
2023-04-20T16:05:33.405Z,7.11
2023-04-20T16:08:01.675Z,7.10
2023-04-20T16:10:30.376Z,7.08
2023-04-20T16:12:58.737Z,7.05
2023-04-20T16:15:27.222Z,7.04
2023-04-20T16:17:55.645Z,7.03
2023-04-20T16:20:23.974Z,7.01
2023-04-20T16:22:52.468Z,6.99
2023-04-20T16:25:23.294Z,6.96
2023-04-20T16:27:51.827Z,6.94
2023-04-20T16:30:20.461Z,6.90
2023-04-20T16:32:50.152Z,6.90
2023-04-20T16:35:21.208Z,6.88
2023-04-20T16:37:49.792Z,6.88
2023-04-20T17:17:45.746Z,6.81
2023-04-20T17:20:14.551Z,6.79
2023-04-20T17:22:43.025Z,6.77
2023-04-20T17:25:11.513Z,6.77
2023-04-20T17:27:40.909Z,6.76
2023-04-20T17:30:10.316Z,6.75
2023-04-20T17:32:38.688Z,6.73
2023-04-20T17:35:08.129Z,6.73
2023-04-20T17:37:36.775Z,6.70
2023-04-20T17:40:06.474Z,6.70
2023-04-20T17:42:35.170Z,6.70
2023-04-20T17:45:03.751Z,6.69
2023-04-20T17:47:32.956Z,6.69
2023-04-20T17:50:01.684Z,6.69
2023-04-20T17:52:30.522Z,6.68
2023-04-20T17:55:00.334Z,6.67
2023-04-20T17:57:29.127Z,6.67
2023-04-20T17:59:57.401Z,6.66
2023-04-20T18:02:26.151Z,6.66
2023-04-20T18:04:57.849Z,6.65
2023-04-20T18:07:27.451Z,6.65
2023-04-20T18:09:55.828Z,6.65
2023-04-20T18:12:24.308Z,6.65
2023-04-20T18:14:52.589Z,6.65
2023-04-20T18:17:20.887Z,6.66
2023-04-20T18:19:49.753Z,6.67
2023-04-20T18:22:18.036Z,6.67
2023-04-20T18:24:46.624Z,6.67
2023-04-20T18:27:15.095Z,6.68
2023-04-20T18:29:43.470Z,6.69
2023-04-20T18:32:12.255Z,6.69
2023-04-20T18:34:40.631Z,6.69
2023-04-20T18:37:10.034Z,6.69
2023-04-20T18:39:39.433Z,6.70
2023-04-20T18:42:07.610Z,6.70
2023-04-20T18:44:36.038Z,6.71
2023-04-20T18:47:04.593Z,6.70
2023-04-20T18:49:34.978Z,6.69
2023-04-20T18:52:03.377Z,6.69
2023-04-20T18:54:32.678Z,6.68
2023-04-20T18:57:02.079Z,6.69
2023-04-20T18:59:31.072Z,6.69
2023-04-20T19:01:59.526Z,6.69
2023-04-20T19:04:28.783Z,6.69
2023-04-20T19:06:57.228Z,6.68
2023-04-20T19:09:26.322Z,6.68
2023-04-20T19:11:54.720Z,6.68
2023-04-20T19:14:23.385Z,6.66
2023-04-20T19:16:51.839Z,6.66
2023-04-20T19:19:21.067Z,6.66
2023-04-20T19:21:49.456Z,6.66
2023-04-20T19:24:18.252Z,6.64
2023-04-20T19:26:47.117Z,6.64
2023-04-20T19:29:15.500Z,6.65
2023-04-20T19:31:43.913Z,6.64
2023-04-20T19:34:13.887Z,6.63
2023-04-20T19:36:42.374Z,6.63
2023-04-20T19:39:10.854Z,6.61
2023-04-20T19:41:39.439Z,6.62
2023-04-20T19:44:10.062Z,6.61
2023-04-20T19:46:38.815Z,6.61
2023-04-20T19:49:07.441Z,6.61
2023-04-20T19:51:35.754Z,6.60
2023-04-20T19:54:04.908Z,6.58
2023-04-20T19:56:34.718Z,6.57
2023-04-20T19:59:02.891Z,6.57
2023-04-20T20:01:31.823Z,6.57
2023-04-20T20:04:00.327Z,6.58
2023-04-20T20:06:28.850Z,6.57
2023-04-20T20:08:57.442Z,6.56
2023-04-20T20:11:25.831Z,6.57
2023-04-20T20:13:54.298Z,6.57
2023-04-20T20:16:22.750Z,6.57
2023-04-20T20:18:51.548Z,6.57
2023-04-20T20:21:19.733Z,6.56
2023-04-20T20:23:48.009Z,6.55
2023-04-20T20:26:16.496Z,6.54
2023-04-20T20:28:44.766Z,6.53
2023-04-20T20:31:13.621Z,6.51
2023-04-20T20:33:43.099Z,6.52
2023-04-20T20:36:11.632Z,6.52
2023-04-20T20:38:40.848Z,6.52
2023-04-20T20:41:09.518Z,6.52
2023-04-20T20:43:38.306Z,6.52
2023-04-20T20:46:06.967Z,6.51
2023-04-20T20:48:35.470Z,6.51
2023-04-20T20:51:03.844Z,6.51
2023-04-20T20:53:32.731Z,6.51
2023-04-20T20:56:01.117Z,6.51
2023-04-20T20:58:29.694Z,6.50
2023-04-20T21:00:57.933Z,6.50
2023-04-20T21:03:26.827Z,6.47
2023-04-20T21:05:55.240Z,6.46
2023-04-20T21:08:24.550Z,6.46
2023-04-20T21:10:52.820Z,6.45
2023-04-20T21:13:22.322Z,6.46
2023-04-20T21:15:50.807Z,6.45
2023-04-20T21:18:19.285Z,6.44
2023-04-20T21:20:47.671Z,6.44
2023-04-20T21:23:16.860Z,6.44
2023-04-20T21:25:45.443Z,6.43
2023-04-20T21:28:14.023Z,6.43
2023-04-20T21:30:42.421Z,6.43
2023-04-20T21:33:11.117Z,6.44
2023-04-20T21:35:39.266Z,6.44
2023-04-20T21:38:07.542Z,6.44
2023-04-20T21:40:36.225Z,6.44
2023-04-20T21:43:04.499Z,6.43
2023-04-20T21:45:32.975Z,6.43
2023-04-20T21:48:01.297Z,6.42
2023-04-20T21:50:29.733Z,6.42
2023-04-20T21:52:58.054Z,6.42
2023-04-20T21:55:26.285Z,6.42
2023-04-20T21:57:54.970Z,6.41
2023-04-20T22:00:23.858Z,6.41
2023-04-20T22:02:52.381Z,6.40
2023-04-20T22:05:21.924Z,6.40
2023-04-20T22:07:50.222Z,6.40
2023-04-20T22:10:18.602Z,6.39
2023-04-20T22:12:46.978Z,6.37
2023-04-20T22:15:15.471Z,6.36
2023-04-20T22:17:46.766Z,6.35
2023-04-20T22:20:16.320Z,6.35
2023-04-20T22:22:44.800Z,6.33
2023-04-20T22:25:13.276Z,6.31
2023-04-20T22:27:41.756Z,6.30
2023-04-20T22:30:10.644Z,6.29
2023-04-20T22:32:39.412Z,6.28
2023-04-20T22:35:08.432Z,6.29
2023-04-20T22:37:37.018Z,6.28
2023-04-20T22:40:06.111Z,6.28
2023-04-20T22:42:36.269Z,6.27
2023-04-20T22:45:05.519Z,6.27
2023-04-20T22:47:35.267Z,6.26
2023-04-20T22:50:04.091Z,6.25
2023-04-20T22:52:32.620Z,6.24
2023-04-20T22:55:01.013Z,6.22
2023-04-20T22:57:29.666Z,6.21
2023-04-20T22:59:58.452Z,6.21
2023-04-20T23:02:27.072Z,6.21
2023-04-20T23:04:56.038Z,6.21
2023-04-20T23:07:24.417Z,6.20
2023-04-20T23:09:53.907Z,6.20
2023-04-20T23:12:22.729Z,6.21
2023-04-20T23:14:51.000Z,6.21
2023-04-20T23:17:19.459Z,6.21
2023-04-20T23:19:47.844Z,6.22
2023-04-20T23:22:16.216Z,6.23
2023-04-20T23:24:44.795Z,6.23
2023-04-20T23:27:13.265Z,6.24
2023-04-20T23:29:41.853Z,6.25
2023-04-20T23:32:10.724Z,6.25
2023-04-20T23:34:39.736Z,6.26
2023-04-20T23:37:08.010Z,6.26
2023-04-20T23:39:37.620Z,6.25
2023-04-20T23:42:06.139Z,6.24
2023-04-20T23:44:35.400Z,6.24
2023-04-20T23:47:03.679Z,6.25
2023-04-20T23:49:32.607Z,6.24
2023-04-20T23:52:00.941Z,6.24
2023-04-20T23:54:31.235Z,6.23
2023-04-20T23:57:01.454Z,6.22
2023-04-20T23:59:29.964Z,6.20
